createdAt,value
2023-02-16T00:00:45.705Z,31.53
2023-02-16T00:03:20.480Z,33.30
2023-02-16T00:05:49.525Z,32.20
2023-02-16T00:08:17.157Z,34.83
2023-02-16T00:11:05.017Z,32.20
2023-02-16T00:13:44.852Z,31.97
2023-02-16T00:16:24.596Z,37.43
2023-02-16T00:18:52.354Z,32.33
2023-02-16T00:21:20.570Z,37.30
2023-02-16T00:23:48.554Z,32.13
2023-02-16T00:26:25.752Z,30.53
2023-02-16T00:28:59.133Z,30.27
2023-02-16T00:31:33.161Z,33.33
2023-02-16T00:34:22.755Z,31.27
2023-02-16T00:36:49.951Z,33.63
2023-02-16T00:39:17.142Z,29.23
2023-02-16T00:41:50.492Z,31.90
2023-02-16T00:44:29.845Z,32.80
2023-02-16T00:46:57.317Z,32.80
2023-02-16T00:49:24.420Z,33.27
2023-02-16T00:51:51.903Z,30.67
2023-02-16T00:54:21.848Z,33.93
2023-02-16T00:56:49.041Z,33.20
2023-02-16T00:59:21.143Z,26.90
2023-02-16T01:01:49.263Z,36.93
2023-02-16T01:04:23.389Z,33.30
2023-02-16T01:07:09.177Z,34.70
2023-02-16T01:09:55.134Z,32.40
2023-02-16T01:12:22.850Z,36.50
2023-02-16T01:14:54.714Z,29.07
2023-02-16T01:17:24.029Z,28.80
2023-02-16T01:19:54.099Z,28.10
2023-02-16T01:22:21.238Z,30.33
2023-02-16T01:24:48.311Z,29.97
2023-02-16T01:27:15.485Z,30.60
2023-02-16T01:29:45.547Z,30.07
2023-02-16T01:32:13.250Z,35.30
2023-02-16T01:34:40.503Z,32.40
2023-02-16T01:37:15.728Z,27.40
2023-02-16T01:39:44.658Z,34.47
2023-02-16T01:42:24.205Z,31.03
2023-02-16T01:45:18.425Z,28.07
2023-02-16T01:47:54.093Z,24.47
2023-02-16T01:50:25.760Z,30.43
2023-02-16T01:52:58.551Z,28.60
2023-02-16T01:55:29.896Z,31.13
2023-02-16T01:58:24.335Z,30.50
2023-02-16T02:00:55.105Z,29.40
2023-02-16T02:03:45.854Z,29.13
2023-02-16T02:06:20.652Z,28.93
2023-02-16T02:09:05.260Z,31.43
2023-02-16T02:11:52.470Z,27.37
2023-02-16T02:14:32.316Z,31.20
2023-02-16T02:17:05.973Z,30.10
2023-02-16T02:19:53.909Z,26.60
2023-02-16T02:23:10.345Z,29.03
2023-02-16T02:26:12.930Z,30.57
2023-02-16T02:29:07.514Z,26.13
2023-02-16T02:31:54.143Z,26.07
2023-02-16T02:34:30.695Z,27.80
2023-02-16T02:37:25.342Z,27.40
2023-02-16T02:40:01.511Z,26.30
2023-02-16T02:42:47.512Z,29.30
2023-02-16T02:45:42.671Z,28.80
2023-02-16T02:48:10.284Z,28.37
2023-02-16T02:50:37.420Z,28.07
2023-02-16T02:53:16.060Z,26.83
2023-02-16T02:56:07.316Z,28.43
2023-02-16T02:59:12.638Z,30.73
2023-02-16T03:01:44.085Z,24.37
2023-02-16T03:04:13.848Z,32.57
2023-02-16T03:06:49.244Z,30.77
2023-02-16T03:09:17.344Z,30.50
2023-02-16T03:12:05.246Z,30.33
2023-02-16T03:14:46.870Z,32.63
2023-02-16T03:17:36.732Z,31.20
2023-02-16T03:20:27.809Z,30.33
2023-02-16T03:23:15.134Z,26.03
2023-02-16T03:26:02.064Z,30.27
2023-02-16T03:28:50.045Z,32.07
2023-02-16T03:31:28.755Z,35.27
2023-02-16T03:33:56.498Z,32.13
2023-02-16T03:36:30.238Z,30.20
2023-02-16T03:38:58.571Z,26.07
2023-02-16T03:41:27.360Z,23.20
2023-02-16T03:43:54.573Z,34.27
2023-02-16T03:46:22.237Z,27.20
2023-02-16T03:48:49.377Z,28.67
2023-02-16T03:51:16.980Z,32.57
2023-02-16T03:53:44.145Z,25.40
2023-02-16T03:56:11.293Z,30.10
2023-02-16T03:58:38.611Z,30.80
2023-02-16T04:01:06.041Z,25.93
2023-02-16T04:03:34.249Z,29.07
2023-02-16T04:06:01.764Z,32.83
2023-02-16T04:08:29.099Z,30.00
2023-02-16T04:10:57.703Z,36.20
2023-02-16T04:13:24.950Z,38.13
2023-02-16T04:15:52.477Z,26.57
2023-02-16T04:18:19.645Z,30.73
2023-02-16T04:20:46.699Z,27.53
2023-02-16T04:23:13.866Z,31.13
2023-02-16T04:25:40.914Z,36.47
2023-02-16T04:28:07.934Z,29.53
2023-02-16T04:30:35.243Z,26.97
2023-02-16T04:33:02.318Z,30.40
2023-02-16T04:35:29.562Z,30.00
2023-02-16T04:37:57.144Z,29.60
2023-02-16T04:40:24.413Z,23.93
2023-02-16T04:42:51.755Z,33.47
2023-02-16T04:45:19.034Z,28.57
2023-02-16T04:47:46.366Z,24.13
2023-02-16T04:50:13.634Z,31.80
2023-02-16T04:52:41.550Z,26.20
2023-02-16T04:55:10.952Z,26.73
2023-02-16T04:57:39.590Z,28.13
2023-02-16T05:00:09.388Z,30.57
2023-02-16T05:02:36.521Z,29.10
2023-02-16T05:05:03.895Z,48.83
2023-02-16T05:07:31.160Z,31.80
2023-02-16T05:09:58.273Z,31.00
2023-02-16T05:12:43.780Z,27.80
2023-02-16T05:15:11.021Z,26.47
2023-02-16T05:17:38.342Z,28.80
2023-02-16T05:20:06.551Z,29.23
2023-02-16T05:22:34.545Z,25.40
2023-02-16T05:25:02.446Z,27.53
2023-02-16T05:27:31.389Z,30.70
2023-02-16T05:29:59.411Z,31.50
2023-02-16T05:32:26.887Z,31.83
2023-02-16T05:34:54.208Z,28.87
2023-02-16T05:37:21.569Z,31.03
2023-02-16T05:39:48.928Z,27.03
2023-02-16T05:42:16.025Z,28.37
2023-02-16T05:44:43.312Z,36.10
2023-02-16T05:47:11.300Z,27.20
2023-02-16T05:49:38.564Z,25.63
2023-02-16T05:52:05.918Z,34.63
2023-02-16T05:54:33.125Z,39.43
2023-02-16T05:57:02.284Z,31.93
2023-02-16T05:59:29.571Z,29.13
2023-02-16T06:01:56.739Z,25.40
2023-02-16T06:04:24.221Z,24.90
2023-02-16T06:06:51.399Z,23.07
2023-02-16T06:09:18.617Z,26.80
2023-02-16T06:11:46.069Z,28.50
2023-02-16T06:14:20.095Z,28.83
2023-02-16T06:16:50.084Z,31.17
2023-02-16T06:19:18.977Z,25.90
2023-02-16T06:21:47.045Z,23.50
2023-02-16T06:24:15.309Z,33.13
2023-02-16T06:26:42.520Z,26.73
2023-02-16T06:29:10.526Z,26.20
2023-02-16T06:31:37.802Z,28.07
2023-02-16T06:34:05.334Z,28.37
2023-02-16T06:36:34.295Z,33.10
2023-02-16T06:39:01.426Z,27.13
2023-02-16T06:41:40.966Z,33.10
2023-02-16T06:44:14.784Z,27.60
2023-02-16T06:46:44.275Z,24.70
2023-02-16T06:49:18.125Z,32.33
2023-02-16T06:51:46.293Z,32.43
2023-02-16T06:54:13.983Z,28.17
2023-02-16T06:56:41.232Z,27.87
2023-02-16T06:59:08.730Z,27.60
2023-02-16T07:01:35.798Z,22.13
2023-02-16T07:04:03.255Z,27.70
2023-02-16T07:06:31.100Z,24.07
2023-02-16T07:08:59.586Z,27.33
2023-02-16T07:11:26.855Z,25.37
2023-02-16T07:13:53.961Z,21.60
2023-02-16T07:16:21.447Z,29.70
2023-02-16T07:18:48.560Z,26.80
2023-02-16T07:21:16.166Z,31.83
2023-02-16T07:23:43.566Z,25.53
2023-02-16T07:26:10.962Z,25.07
2023-02-16T07:28:38.135Z,30.60
2023-02-16T07:31:11.435Z,32.57
2023-02-16T07:33:39.094Z,29.00
2023-02-16T07:36:08.656Z,33.97
2023-02-16T07:38:36.160Z,25.63
2023-02-16T07:41:07.031Z,29.27
2023-02-16T07:43:36.003Z,31.20
2023-02-16T07:46:03.294Z,27.30
2023-02-16T07:48:30.535Z,24.80
2023-02-16T07:50:58.387Z,27.27
2023-02-16T07:53:25.631Z,26.60
2023-02-16T07:55:52.815Z,23.20
2023-02-16T07:58:29.038Z,29.30
2023-02-16T08:01:14.765Z,26.63
2023-02-16T08:03:43.380Z,24.93
2023-02-16T08:06:11.509Z,26.37
2023-02-16T08:08:39.368Z,32.43
2023-02-16T08:11:25.124Z,27.97
2023-02-16T08:13:53.397Z,24.97
2023-02-16T08:16:25.002Z,28.17
2023-02-16T08:18:53.046Z,26.13
2023-02-16T08:21:23.773Z,30.07
2023-02-16T08:24:06.555Z,28.77
2023-02-16T08:26:40.191Z,28.23
2023-02-16T08:29:13.349Z,20.33
2023-02-16T08:31:41.762Z,30.97
2023-02-16T08:34:10.148Z,33.83
2023-02-16T08:36:38.701Z,28.30
2023-02-16T08:39:12.422Z,28.07
2023-02-16T08:41:39.883Z,26.20
2023-02-16T08:44:08.463Z,23.70
2023-02-16T08:46:39.220Z,33.17
2023-02-16T08:49:08.412Z,20.83
2023-02-16T08:51:38.637Z,29.53
2023-02-16T08:54:11.992Z,26.97
2023-02-16T08:56:39.649Z,29.70
2023-02-16T08:59:06.732Z,26.43
2023-02-16T09:01:33.939Z,28.63
2023-02-16T09:04:01.196Z,30.80
2023-02-16T09:06:28.266Z,29.37
2023-02-16T09:08:57.152Z,28.53
2023-02-16T09:11:25.632Z,26.40
2023-02-16T09:13:53.233Z,29.87
2023-02-16T09:16:23.753Z,32.93
2023-02-16T09:18:52.165Z,29.50
2023-02-16T09:21:25.469Z,27.90
2023-02-16T09:23:55.825Z,29.53
2023-02-16T09:26:25.462Z,28.20
2023-02-16T09:28:53.706Z,26.23
2023-02-16T09:31:29.004Z,34.20
2023-02-16T09:34:06.360Z,30.93
2023-02-16T09:36:34.401Z,30.40
2023-02-16T09:39:02.326Z,29.67
2023-02-16T09:41:41.352Z,26.93
2023-02-16T09:44:29.522Z,32.33
2023-02-16T09:47:00.412Z,30.87
2023-02-16T09:49:42.465Z,29.97
2023-02-16T09:52:40.338Z,28.70
2023-02-16T09:55:18.057Z,30.03
2023-02-16T09:57:55.664Z,29.63
2023-02-16T10:00:35.926Z,33.00
2023-02-16T10:03:21.319Z,30.23
2023-02-16T10:06:24.732Z,30.00
2023-02-16T10:08:58.626Z,30.60
2023-02-16T10:11:48.838Z,33.70
2023-02-16T10:14:24.732Z,29.87
2023-02-16T10:17:06.743Z,29.60
2023-02-16T10:19:54.772Z,31.40
2023-02-16T10:22:36.105Z,31.23
2023-02-16T10:25:24.233Z,32.40
2023-02-16T10:28:18.210Z,29.97
2023-02-16T10:31:21.811Z,33.43
2023-02-16T10:34:03.961Z,33.27
2023-02-16T10:37:11.669Z,32.70
2023-02-16T10:39:59.595Z,34.90
2023-02-16T10:42:50.259Z,30.70
2023-02-16T10:45:35.883Z,33.40
2023-02-16T10:48:03.116Z,34.30
2023-02-16T10:50:38.894Z,31.93
2023-02-16T10:53:17.401Z,33.30
2023-02-16T10:55:44.937Z,40.07
2023-02-16T10:58:29.314Z,29.87
2023-02-16T11:01:14.897Z,30.53
2023-02-16T11:03:55.509Z,28.40
2023-02-16T11:06:29.118Z,37.93
2023-02-16T11:09:01.232Z,30.43
2023-02-16T11:11:39.942Z,23.47
2023-02-16T11:14:25.344Z,21.20
2023-02-16T11:17:12.719Z,19.70
2023-02-16T11:20:02.419Z,20.23
2023-02-16T11:22:37.523Z,23.40
2023-02-16T11:25:23.930Z,24.50
2023-02-16T11:28:05.621Z,19.27
2023-02-16T11:30:40.364Z,18.93
2023-02-16T11:33:26.985Z,23.60
2023-02-16T11:35:55.241Z,25.90
2023-02-16T11:38:37.054Z,21.57
2023-02-16T11:41:07.329Z,24.33
2023-02-16T11:43:42.446Z,19.00
2023-02-16T11:46:20.774Z,22.27
2023-02-16T11:48:48.656Z,31.57
2023-02-16T11:51:30.438Z,21.17
2023-02-16T11:54:05.777Z,21.03
2023-02-16T11:56:36.538Z,20.00
2023-02-16T11:59:20.773Z,19.37
2023-02-16T12:02:00.574Z,18.37
2023-02-16T12:05:08.390Z,21.20
2023-02-16T12:08:32.393Z,17.00
2023-02-16T12:11:14.981Z,17.97
2023-02-16T12:14:08.276Z,21.37
2023-02-16T12:17:05.338Z,18.87
2023-02-16T12:19:49.793Z,23.07
2023-02-16T12:22:29.121Z,25.23
2023-02-16T12:25:19.846Z,19.50
2023-02-16T12:28:00.729Z,20.50
2023-02-16T12:31:11.576Z,20.90
2023-02-16T12:33:53.991Z,20.23
2023-02-16T12:36:52.320Z,20.37
2023-02-16T12:39:56.278Z,19.40
2023-02-16T12:43:09.787Z,22.97
2023-02-16T12:45:43.424Z,18.17
2023-02-16T12:48:37.370Z,35.83
2023-02-16T12:51:16.363Z,17.03
2023-02-16T12:53:53.979Z,20.87
2023-02-16T12:57:04.718Z,21.33
2023-02-16T13:00:18.828Z,22.40
2023-02-16T13:02:58.217Z,21.07
2023-02-16T13:05:36.176Z,19.17
2023-02-16T13:08:18.227Z,22.30
2023-02-16T13:10:58.254Z,20.40
2023-02-16T13:13:33.799Z,22.90
2023-02-16T13:16:24.129Z,23.03
2023-02-16T13:18:57.199Z,25.37
2023-02-16T13:21:51.174Z,25.93
2023-02-16T13:24:51.019Z,21.97
2023-02-16T13:27:37.092Z,23.87
2023-02-16T13:31:15.652Z,20.00
2023-02-16T13:34:02.370Z,23.03
2023-02-16T13:37:05.093Z,23.70
2023-02-16T13:39:38.756Z,28.80
2023-02-16T13:42:36.750Z,22.20
2023-02-16T13:45:21.229Z,19.00
2023-02-16T13:47:49.583Z,18.33
2023-02-16T13:50:23.244Z,20.07
2023-02-16T13:52:53.622Z,22.07
2023-02-16T13:55:38.841Z,19.40
2023-02-16T13:58:12.125Z,23.20
2023-02-16T14:00:49.998Z,21.63
2023-02-16T14:03:22.807Z,24.10
2023-02-16T14:05:56.457Z,20.17
2023-02-16T14:08:31.787Z,20.50
2023-02-16T14:11:01.792Z,17.50
2023-02-16T14:13:48.389Z,17.70
2023-02-16T14:16:18.933Z,17.00
2023-02-16T14:19:19.230Z,18.60
2023-02-16T14:21:49.333Z,18.50
2023-02-16T14:24:44.635Z,20.87
2023-02-16T14:27:13.341Z,20.63
2023-02-16T14:29:59.627Z,19.00
2023-02-16T14:32:38.608Z,36.90
2023-02-16T14:35:20.081Z,32.93
2023-02-16T14:37:59.298Z,18.43
2023-02-16T14:40:35.740Z,31.60
2023-02-16T14:43:24.678Z,30.00
2023-02-16T14:46:29.760Z,36.27
2023-02-16T14:49:19.372Z,36.47
2023-02-16T14:52:16.878Z,39.17
2023-02-16T14:55:27.348Z,36.37
2023-02-16T14:58:13.575Z,35.70
2023-02-16T15:00:55.991Z,34.03
2023-02-16T15:03:26.334Z,35.20
2023-02-16T15:06:06.268Z,39.83
2023-02-16T15:08:40.193Z,34.83
2023-02-16T15:11:33.057Z,38.60
2023-02-16T15:14:09.621Z,41.13
2023-02-16T15:16:40.671Z,40.80
2023-02-16T15:19:15.944Z,37.40
2023-02-16T15:21:44.012Z,43.70
2023-02-16T15:24:23.920Z,41.80
2023-02-16T15:26:57.967Z,38.60
2023-02-16T15:29:29.362Z,40.27
2023-02-16T15:31:59.996Z,42.50
2023-02-16T15:34:46.310Z,48.73
2023-02-16T15:37:30.085Z,51.43
2023-02-16T15:40:25.340Z,44.83
2023-02-16T15:42:56.880Z,44.60
2023-02-16T15:45:38.314Z,44.70
2023-02-16T15:48:29.456Z,45.63
2023-02-16T15:51:15.636Z,46.27
2023-02-16T15:54:28.404Z,45.87
2023-02-16T15:57:11.445Z,50.50
2023-02-16T15:59:47.594Z,47.33
2023-02-16T16:02:19.754Z,46.60
2023-02-16T16:05:01.114Z,47.60
2023-02-16T16:07:35.871Z,46.00
2023-02-16T16:10:15.579Z,42.63
2023-02-16T16:12:44.366Z,43.10
2023-02-16T16:15:23.730Z,52.37
2023-02-16T16:17:53.693Z,49.20
2023-02-16T16:20:42.145Z,53.40
2023-02-16T16:23:15.328Z,48.20
2023-02-16T16:25:46.078Z,48.17
2023-02-16T16:28:32.361Z,49.53
2023-02-16T16:31:17.493Z,48.47
2023-02-16T16:34:07.505Z,48.10
2023-02-16T16:36:54.174Z,52.17
2023-02-16T16:39:29.407Z,43.50
2023-02-16T16:42:20.635Z,53.93
2023-02-16T16:45:00.322Z,50.17
2023-02-16T16:47:40.491Z,57.10
2023-02-16T16:50:10.860Z,48.57
2023-02-16T16:52:43.979Z,54.00
2023-02-16T16:55:34.074Z,55.03
2023-02-16T16:58:08.388Z,53.17
2023-02-16T17:00:39.113Z,52.03
2023-02-16T17:03:08.725Z,46.30
2023-02-16T17:05:38.462Z,50.10
2023-02-16T17:08:06.324Z,53.90
2023-02-16T17:10:35.670Z,54.20
2023-02-16T17:13:03.194Z,49.40
2023-02-16T17:15:45.137Z,54.53
2023-02-16T17:18:17.017Z,51.63
2023-02-16T17:20:45.207Z,52.53
2023-02-16T17:23:15.291Z,57.43
2023-02-16T17:25:43.429Z,56.13
2023-02-16T17:28:12.855Z,51.60
2023-02-16T17:30:41.092Z,54.57
2023-02-16T17:33:09.798Z,51.07
2023-02-16T17:35:39.470Z,48.47
2023-02-16T17:38:09.023Z,54.37
2023-02-16T17:40:36.259Z,52.10
2023-02-16T17:43:10.526Z,53.63
2023-02-16T17:45:37.976Z,50.97
2023-02-16T17:48:05.093Z,60.40
2023-02-16T17:50:33.068Z,53.97
2023-02-16T17:53:00.458Z,51.77
2023-02-16T17:55:27.906Z,55.77
2023-02-16T17:57:56.903Z,54.17
2023-02-16T18:00:24.177Z,57.97
2023-02-16T18:02:51.471Z,50.30
2023-02-16T18:05:18.816Z,50.23
2023-02-16T18:07:46.057Z,46.50
2023-02-16T18:10:33.091Z,59.30
2023-02-16T18:13:00.474Z,47.97
2023-02-16T18:15:27.884Z,59.13
2023-02-16T18:17:55.565Z,50.03
2023-02-16T18:20:23.301Z,55.63
2023-02-16T18:22:50.785Z,83.07
2023-02-16T18:27:45.927Z,52.33
2023-02-16T18:30:14.928Z,54.97
2023-02-16T18:32:42.747Z,48.50
2023-02-16T18:35:10.862Z,52.40
2023-02-16T18:37:38.693Z,51.43
2023-02-16T18:40:08.625Z,51.27
2023-02-16T18:42:37.001Z,52.90
2023-02-16T18:45:06.249Z,52.37
2023-02-16T18:47:33.365Z,54.70
2023-02-16T18:50:00.519Z,49.20
2023-02-16T18:52:27.702Z,53.10
2023-02-16T18:54:54.798Z,53.00
2023-02-16T18:57:22.807Z,50.67
2023-02-16T18:59:50.176Z,54.83
2023-02-16T19:02:17.513Z,53.30
2023-02-16T19:04:44.650Z,52.30
2023-02-16T19:07:11.809Z,57.10
2023-02-16T19:09:39.147Z,56.93
2023-02-16T19:12:06.284Z,53.90
2023-02-16T19:14:33.494Z,55.20
2023-02-16T19:17:00.569Z,57.73
2023-02-16T19:19:30.023Z,54.93
2023-02-16T19:21:57.601Z,54.23
2023-02-16T19:24:25.912Z,50.53
2023-02-16T19:26:53.098Z,52.67
2023-02-16T19:29:20.579Z,49.47
2023-02-16T19:31:48.053Z,51.67
2023-02-16T19:34:15.514Z,48.87
2023-02-16T19:36:42.602Z,50.87
2023-02-16T19:39:12.064Z,56.07
2023-02-16T19:41:43.700Z,47.03
2023-02-16T19:44:14.016Z,50.70
2023-02-16T19:46:42.382Z,52.60
2023-02-16T19:49:15.758Z,56.73
2023-02-16T19:51:44.003Z,47.63
2023-02-16T19:54:11.085Z,55.50
2023-02-16T19:56:40.606Z,52.33
2023-02-16T19:59:08.664Z,52.80
2023-02-16T20:01:36.060Z,53.93
2023-02-16T20:04:03.850Z,48.73
2023-02-16T20:06:34.469Z,38.60
2023-02-16T20:09:02.101Z,32.37
2023-02-16T20:11:32.406Z,24.50
2023-02-16T20:14:01.527Z,20.13
2023-02-16T20:16:30.172Z,21.40
2023-02-16T20:18:59.121Z,17.93
2023-02-16T20:21:29.295Z,18.60
2023-02-16T20:24:03.944Z,24.17
2023-02-16T20:26:39.045Z,19.63
2023-02-16T20:29:08.754Z,21.27
2023-02-16T20:31:56.883Z,23.63
2023-02-16T20:34:27.386Z,20.43
2023-02-16T20:36:55.133Z,21.17
2023-02-16T20:39:23.077Z,21.37
2023-02-16T20:41:50.391Z,19.40
2023-02-16T20:44:17.623Z,21.40
2023-02-16T20:46:45.345Z,19.33
2023-02-16T20:49:13.578Z,22.43
2023-02-16T20:51:41.476Z,18.43
2023-02-16T20:54:08.958Z,21.50
2023-02-16T20:56:36.308Z,21.10
2023-02-16T20:59:03.880Z,25.53
2023-02-16T21:01:38.644Z,23.90
2023-02-16T21:04:08.216Z,23.23
2023-02-16T21:06:37.502Z,19.70
2023-02-16T21:09:07.276Z,20.10
2023-02-16T21:11:35.085Z,18.93
2023-02-16T21:14:03.138Z,21.23
2023-02-16T21:16:31.993Z,18.20
2023-02-16T21:18:59.245Z,19.40
2023-02-16T21:21:26.674Z,18.70
2023-02-16T21:23:54.752Z,21.77
2023-02-16T21:26:24.779Z,19.00
2023-02-16T21:28:52.811Z,18.27
2023-02-16T21:31:24.082Z,16.60
2023-02-16T21:33:52.440Z,15.90
2023-02-16T21:36:24.005Z,14.63
2023-02-16T21:38:52.841Z,16.00
2023-02-16T21:41:25.451Z,17.23
2023-02-16T21:44:01.006Z,16.50
2023-02-16T21:46:33.386Z,16.00
2023-02-16T21:49:01.369Z,19.87
2023-02-16T21:51:38.013Z,16.50
2023-02-16T21:54:15.376Z,14.97
2023-02-16T21:56:53.175Z,15.33
2023-02-16T21:59:22.731Z,16.20
2023-02-16T22:01:51.844Z,14.63
2023-02-16T22:04:22.475Z,16.63
2023-02-16T22:06:51.332Z,16.30
2023-02-16T22:09:21.813Z,16.13
2023-02-16T22:11:49.737Z,14.97
2023-02-16T22:14:17.670Z,16.27
2023-02-16T22:16:47.487Z,14.67
2023-02-16T22:19:18.029Z,15.27
2023-02-16T22:21:47.841Z,11.00
2023-02-16T22:24:17.706Z,14.47
2023-02-16T22:26:49.865Z,18.70
2023-02-16T22:29:18.514Z,15.80
2023-02-16T22:31:47.756Z,13.50
2023-02-16T22:34:19.609Z,13.63
2023-02-16T22:36:47.446Z,14.50
2023-02-16T22:39:19.072Z,19.63
2023-02-16T22:41:46.450Z,13.10
2023-02-16T22:44:15.679Z,15.70
2023-02-16T22:46:43.454Z,13.40
2023-02-16T22:49:10.950Z,13.73
2023-02-16T22:51:38.294Z,12.37
2023-02-16T22:54:05.714Z,12.90
2023-02-16T22:56:34.307Z,12.10
2023-02-16T22:59:01.504Z,14.07
2023-02-16T23:01:31.539Z,13.30
2023-02-16T23:04:01.055Z,10.83
2023-02-16T23:06:32.127Z,13.10
2023-02-16T23:09:05.157Z,20.57
2023-02-16T23:11:33.381Z,16.63
2023-02-16T23:14:00.802Z,21.03
2023-02-16T23:16:28.537Z,18.77
2023-02-16T23:18:58.947Z,13.50
2023-02-16T23:21:30.086Z,11.10
2023-02-16T23:23:58.232Z,14.40
2023-02-16T23:26:30.273Z,11.67
2023-02-16T23:29:01.413Z,15.80
2023-02-16T23:31:35.796Z,16.23
2023-02-16T23:34:05.525Z,17.90
2023-02-16T23:36:35.095Z,13.10
2023-02-16T23:39:10.261Z,12.97
2023-02-16T23:41:37.945Z,13.23
2023-02-16T23:44:06.184Z,14.57
2023-02-16T23:46:33.968Z,11.00
2023-02-16T23:49:01.325Z,13.03
2023-02-16T23:51:28.699Z,11.20
2023-02-16T23:53:56.453Z,17.83
2023-02-16T23:56:28.333Z,15.60
2023-02-16T23:59:00.627Z,15.20
